メインページ
METAR-TAF:

METAR-TAF

空港 :

ロンドン・ヒースロー空港, イングランド

緯度: 51-29N, 経度: 000-27W, 海抜: 24m

現時点の気象観測

当レポートは18分前の23:20(UTC)に作成
南西の風 5kt
気温 9°C
湿度 87%
気圧 1021 hPa
視程: 7000m

METAR: EGLL 232320Z AUTO 22005KT 7000 NCD 09/07 Q1021

時間: 00:38 (23:38 UTC)

予報

当レポートは1時間44分前の21:54(UTC)に作成
予報は23日の 21時(UTC)から 24日の 24時(UTC)まで有効
西/南西の風 6kt
視程10km以上
高度4500ftの雲は散在している
23日の 21時(UTC)から 24日の 07時(UTC)まで一時的に
視程: 8000m
確率 30% :
24日の 12時(UTC)から 24日の 17時(UTC)まで一時的に
視程: 8000m
弱いにわか雨
確率 40% :
24日の 17時(UTC)から 24日の 21時(UTC)まで一時的に
視程: 6000m
高度1400ftの千切れ雲あり
にわか雨
24日の 18時(UTC)から 24日の 21時(UTC)まで徐々に
北西の風 12kt

TAF: EGLL 232154Z 2321/2424 25006KT 9999 SCT045 TEMPO 2321/2407 8000 PROB30 TEMPO 2412/2417 8000 -SHRA PROB40 TEMPO 2417/2421 6000 SHRA BKN014 BECMG 2418/2421 32012KT

4,000以上の空港の気象観測と天気予報(METAR報とTAF報)

利用可能な観測所は地図上に黄色い丸と赤い丸で示す。

丸の上にカーソルを重ねると観測所名を参照できる。

次にクリックすると気象観測と天気予報を参照できる。

マップの切り替え:黒色「×」印の緑ボタンをクリックして拡大、「-」印の緑ボタンをクリックして縮小、緑色の三角印をクリックして隣りの地図に切り替え


METAR-TAF: